createdAt,value
2018-04-15T11:48:26.671Z,40.90
2018-04-15T11:50:55.574Z,40.90
2018-04-15T11:53:24.452Z,39.60
2018-04-15T11:55:53.326Z,40.10
2018-04-15T11:58:22.223Z,41.40
2018-04-15T12:00:51.095Z,40.80
2018-04-15T12:03:20.027Z,41.10
2018-04-15T12:05:48.907Z,41.10
2018-04-15T12:08:17.779Z,41.90
2018-04-15T12:10:46.696Z,42.00
2018-04-15T12:13:15.570Z,41.90
2018-04-15T12:15:45.241Z,41.90
2018-04-15T12:18:14.164Z,41.80
2018-04-15T12:20:43.804Z,43.50
2018-04-15T12:23:12.692Z,43.50
2018-04-15T12:25:42.368Z,44.00
2018-04-15T12:28:11.246Z,44.00
2018-04-15T12:30:40.116Z,44.60
2018-04-15T12:33:09.042Z,44.60
2018-04-15T12:35:37.940Z,44.90
2018-04-15T12:38:06.827Z,44.90
2018-04-15T12:40:35.740Z,45.10
2018-04-15T12:43:04.619Z,45.60
2018-04-15T12:45:33.495Z,45.30
2018-04-15T12:48:02.391Z,45.90
2018-04-15T12:50:31.266Z,45.30
2018-04-15T12:53:00.139Z,46.20
2018-04-15T12:55:29.066Z,45.60
2018-04-15T12:57:57.935Z,45.50
2018-04-15T13:00:26.806Z,45.90
2018-04-15T13:02:55.707Z,46.50
2018-04-15T13:05:25.357Z,46.70
2018-04-15T13:07:55.019Z,45.80
2018-04-15T13:10:23.906Z,45.80
2018-04-15T13:12:53.591Z,46.90
2018-04-15T13:15:22.473Z,46.30
2018-04-15T13:17:52.119Z,47.70
2018-04-15T13:20:21.035Z,47.60
2018-04-15T13:22:49.911Z,47.50
2018-04-15T13:25:18.825Z,47.60
2018-04-15T13:27:47.699Z,47.90
2018-04-15T13:30:16.596Z,46.80
2018-04-15T13:32:45.507Z,47.70
2018-04-15T13:35:14.384Z,47.80
2018-04-15T13:37:43.256Z,47.10
2018-04-15T13:40:12.147Z,47.10
2018-04-15T13:42:41.796Z,46.90
2018-04-15T13:45:10.867Z,46.90
2018-04-15T13:47:39.740Z,47.10
2018-04-15T13:50:08.656Z,47.20
2018-04-15T13:52:38.406Z,46.40
2018-04-15T13:55:07.284Z,46.40
2018-04-15T13:57:36.159Z,46.70
2018-04-15T14:00:05.107Z,46.80
2018-04-15T14:02:34.123Z,46.60
2018-04-15T14:05:03.000Z,46.70
2018-04-15T14:07:31.888Z,47.10
2018-04-15T14:10:00.803Z,47.40
2018-04-15T14:12:30.460Z,47.60
2018-04-15T14:14:59.328Z,47.60
2018-04-15T14:17:28.228Z,47.70
2018-04-15T14:19:57.875Z,48.30
2018-04-15T14:22:26.801Z,48.30
2018-04-15T14:24:56.459Z,48.90
2018-04-15T14:27:25.363Z,48.80
2018-04-15T14:29:54.237Z,49.00
2018-04-15T14:32:23.111Z,50.00
2018-04-15T14:34:52.070Z,49.70
2018-04-15T14:37:20.952Z,50.00
2018-04-15T14:39:49.889Z,50.00
2018-04-15T14:42:18.771Z,50.70
2018-04-15T14:44:47.667Z,50.30
2018-04-15T14:47:17.349Z,50.50
2018-04-15T14:49:46.228Z,50.60
2018-04-15T14:52:15.255Z,51.10
2018-04-15T14:54:44.686Z,51.40
2018-04-15T14:57:13.752Z,51.70
2018-04-15T14:59:42.795Z,51.40
2018-04-15T15:02:11.733Z,52.10
2018-04-15T15:04:40.743Z,52.30
2018-04-15T15:07:11.620Z,51.60
2018-04-15T15:09:40.635Z,51.50
2018-04-15T15:12:09.519Z,52.00
2018-04-15T15:14:39.163Z,52.20
2018-04-15T15:17:08.090Z,52.20
2018-04-15T15:19:37.793Z,54.40
2018-04-15T15:22:06.647Z,54.40
2018-04-15T15:24:35.551Z,52.30
2018-04-15T15:27:04.440Z,53.30
2018-04-15T15:29:33.327Z,53.10
2018-04-15T15:32:02.263Z,52.70
2018-04-15T15:34:31.950Z,52.10
2018-04-15T15:37:01.588Z,51.70
2018-04-15T15:39:30.488Z,51.70
2018-04-15T15:41:59.385Z,51.90
2018-04-15T15:44:29.046Z,52.60
2018-04-15T15:46:57.919Z,52.60
2018-04-15T15:49:26.812Z,53.30
2018-04-15T15:51:55.716Z,53.00
2018-04-15T15:54:25.396Z,52.70
2018-04-15T15:56:55.057Z,52.50
2018-04-15T15:59:24.916Z,52.50
2018-04-15T16:01:53.831Z,52.40
2018-04-15T16:04:22.704Z,52.80
2018-04-15T16:06:51.588Z,52.80
2018-04-15T16:09:20.492Z,54.00
2018-04-15T16:11:50.156Z,56.00
2018-04-15T16:14:19.048Z,56.00
2018-04-15T16:16:47.942Z,56.70
2018-04-15T16:19:17.632Z,58.50
2018-04-15T16:21:47.279Z,59.30
2018-04-15T16:24:16.184Z,59.30
2018-04-15T16:26:45.087Z,59.40
2018-04-15T16:29:13.971Z,60.30
2018-04-15T16:31:42.875Z,59.20
2018-04-15T16:34:11.777Z,58.90
2018-04-15T16:36:41.446Z,58.50
2018-04-15T16:39:10.345Z,58.50
2018-04-15T16:41:39.243Z,59.10
2018-04-15T16:44:08.911Z,60.40
2018-04-15T16:46:37.788Z,60.40
2018-04-15T16:49:06.699Z,62.00
2018-04-15T16:51:35.579Z,63.00
2018-04-15T16:54:04.527Z,63.10
2018-04-15T16:56:33.412Z,63.30
2018-04-15T16:59:02.299Z,62.80
2018-04-15T17:01:31.176Z,63.00
2018-04-15T17:04:00.091Z,62.70
2018-04-15T17:06:28.968Z,63.50
2018-04-15T17:08:57.839Z,64.30
2018-04-15T17:11:26.756Z,64.90
2018-04-15T17:13:56.415Z,66.00
2018-04-15T17:16:25.302Z,66.00
2018-04-15T17:18:54.207Z,66.50
2018-04-15T17:21:23.946Z,67.60
2018-04-15T17:23:52.876Z,67.60
2018-04-15T17:26:22.523Z,68.60
2018-04-15T17:28:51.417Z,68.60
2018-04-15T17:31:20.437Z,69.00
2018-04-15T17:33:49.460Z,69.60
2018-04-15T17:36:18.647Z,70.20
2018-04-15T17:38:47.563Z,70.70
2018-04-15T17:41:16.533Z,71.70
2018-04-15T17:43:46.203Z,73.10
2018-04-15T17:46:15.085Z,73.10
2018-04-15T17:48:44.840Z,73.90
2018-04-15T17:51:13.760Z,73.90
2018-04-15T17:53:43.405Z,72.90
2018-04-15T17:56:12.798Z,72.80
2018-04-15T17:58:41.722Z,73.20
2018-04-15T18:01:10.656Z,73.10
2018-04-15T18:03:39.610Z,74.10
2018-04-15T18:06:08.500Z,74.30
2018-04-15T18:08:37.383Z,74.40
2018-04-15T18:11:06.553Z,74.40
2018-04-15T18:13:35.498Z,74.60
2018-04-15T18:16:04.371Z,74.70
2018-04-15T18:18:33.952Z,74.60
2018-04-15T18:21:03.803Z,75.70
2018-04-15T18:23:33.652Z,76.10
2018-04-15T18:26:02.911Z,76.10
2018-04-15T18:28:31.867Z,75.70
2018-04-15T18:31:01.129Z,75.80
2018-04-15T18:33:30.293Z,75.60
2018-04-15T18:35:59.620Z,75.50
2018-04-15T18:38:28.715Z,76.30
2018-04-15T18:40:57.771Z,76.30
2018-04-15T18:43:26.662Z,76.10
2018-04-15T18:45:55.546Z,76.40
2018-04-15T18:48:24.636Z,76.50
2018-04-15T18:50:54.416Z,77.10
2018-04-15T18:53:23.404Z,77.10
2018-04-15T18:55:53.306Z,77.90
2018-04-15T18:58:24.067Z,77.60
2018-04-15T19:00:53.247Z,77.60
2018-04-15T19:03:22.240Z,78.00
2018-04-15T19:05:51.250Z,78.70
2018-04-15T19:08:20.130Z,78.70
2018-04-15T19:10:49.803Z,78.70
2018-04-15T19:13:19.048Z,78.60
2018-04-15T19:15:47.939Z,78.70
2018-04-15T19:18:17.063Z,78.30
2018-04-15T19:20:46.948Z,78.20
2018-04-15T19:23:15.938Z,78.10
2018-04-15T19:25:45.978Z,79.20
2018-04-15T19:28:15.023Z,79.10
2018-04-15T19:30:43.942Z,79.00
2018-04-15T19:33:12.883Z,79.20
2018-04-15T19:35:42.729Z,78.70
2018-04-15T19:38:11.733Z,78.60
2018-04-15T19:40:40.684Z,79.40
2018-04-15T19:43:09.693Z,78.90
2018-04-15T19:45:38.792Z,79.10
2018-04-15T19:48:08.570Z,79.50
2018-04-15T19:50:37.742Z,79.40
2018-04-15T19:53:06.737Z,79.20
2018-04-15T19:55:37.417Z,79.20
2018-04-15T19:58:06.343Z,79.00
2018-04-15T20:00:35.231Z,79.50
2018-04-15T20:03:04.171Z,80.10
2018-04-15T20:05:33.102Z,81.20
2018-04-15T20:08:02.763Z,83.70
2018-04-15T20:10:31.691Z,83.70
2018-04-15T20:13:00.564Z,84.90
2018-04-15T20:15:29.443Z,85.70
2018-04-15T20:17:58.353Z,86.60
2018-04-15T20:20:27.995Z,89.10
2018-04-15T20:22:56.967Z,89.00
2018-04-15T20:25:25.847Z,89.70
2018-04-15T20:27:55.005Z,90.00
2018-04-15T20:30:23.963Z,89.70
2018-04-15T20:32:52.857Z,89.70
2018-04-15T20:35:21.755Z,89.80
2018-04-15T20:37:50.631Z,90.00
2018-04-15T20:40:19.512Z,90.30
2018-04-15T20:42:48.438Z,90.90
2018-04-15T20:45:17.350Z,91.00
2018-04-15T20:47:46.250Z,91.10
2018-04-15T20:50:15.155Z,90.80
2018-04-15T20:52:44.042Z,90.70
2018-04-15T20:55:13.102Z,90.80
2018-04-15T20:57:41.963Z,91.00
2018-04-15T21:00:10.856Z,91.20
2018-04-15T21:02:40.434Z,91.30
2018-04-15T21:05:10.089Z,91.60
2018-04-15T21:07:39.024Z,91.60
2018-04-15T21:10:07.933Z,91.70
2018-04-15T21:12:36.826Z,91.70
2018-04-15T21:15:05.739Z,91.70
2018-04-15T21:17:35.390Z,91.80
2018-04-15T21:20:04.292Z,91.80
2018-04-15T21:22:33.213Z,91.90
2018-04-15T21:25:02.104Z,92.00
2018-04-15T21:27:30.993Z,92.10
2018-04-15T21:29:59.916Z,92.20
2018-04-15T21:32:28.844Z,92.30
2018-04-15T21:34:58.535Z,92.20
2018-04-15T21:37:27.476Z,92.20
2018-04-15T21:39:56.357Z,92.30
2018-04-15T21:42:25.277Z,92.40
2018-04-15T21:44:54.175Z,92.40
2018-04-15T21:47:23.960Z,92.30
2018-04-15T21:49:53.634Z,92.30
2018-04-15T21:52:22.583Z,92.30
2018-04-15T21:54:52.095Z,92.40
2018-04-15T21:57:21.000Z,92.50
2018-04-15T21:59:50.689Z,92.80
2018-04-15T22:02:19.655Z,92.80
2018-04-15T22:04:48.567Z,92.80
2018-04-15T22:07:17.469Z,92.70
2018-04-15T22:09:49.336Z,92.70
2018-04-15T22:12:19.642Z,92.80
2018-04-15T22:14:48.603Z,92.90
2018-04-15T22:17:17.481Z,92.90
2018-04-15T22:19:46.367Z,92.80
2018-04-15T22:22:15.299Z,92.80
2018-04-15T22:24:44.327Z,92.80
2018-04-15T22:27:13.237Z,92.80
2018-04-15T22:29:42.908Z,92.70
2018-04-15T22:32:11.833Z,92.70
2018-04-15T22:34:40.744Z,92.70
2018-04-15T22:37:09.627Z,92.70
2018-04-15T22:39:38.515Z,92.80
2018-04-15T22:42:07.415Z,92.90
2018-04-15T22:44:36.307Z,93.00
2018-04-15T22:47:05.408Z,92.90
2018-04-15T22:49:34.316Z,92.90
2018-04-15T22:52:03.347Z,92.70
2018-04-15T22:54:32.244Z,92.80
2018-04-15T22:57:17.551Z,93.00
2018-04-15T22:59:47.214Z,93.00
2018-04-15T23:02:16.127Z,93.00
2018-04-15T23:04:45.008Z,93.00
2018-04-15T23:07:13.937Z,93.20
2018-04-15T23:09:42.868Z,93.20
2018-04-15T23:12:11.808Z,93.30
2018-04-15T23:14:40.687Z,93.40
2018-04-15T23:17:10.356Z,93.20
2018-04-15T23:19:39.281Z,93.20
2018-04-15T23:22:08.172Z,93.20
2018-04-15T23:24:37.060Z,93.30
2018-04-15T23:27:05.971Z,93.30
2018-04-15T23:29:35.632Z,93.20
2018-04-15T23:32:04.551Z,93.20
2018-04-15T23:34:34.204Z,93.10
2018-04-15T23:37:03.092Z,93.10
2018-04-15T23:39:32.026Z,93.10
2018-04-15T23:42:00.922Z,93.10
2018-04-15T23:44:29.802Z,93.50
2018-04-15T23:46:58.732Z,93.20
2018-04-15T23:49:27.619Z,93.20
2018-04-15T23:51:56.508Z,93.30
2018-04-15T23:54:25.407Z,93.40
2018-04-15T23:56:56.108Z,93.30
2018-04-15T23:59:25.032Z,93.30
